Terminal Aerodrome Forecast
Issued by NWS

Home | Current Version | Previous Version | Text Only | Print | Product List | Glossary Off
Versions: 1 2 3 4 5 6 7 8 9 10 11 12 13 14

000
FTUS43 KMPX 021125
TAFRNH
TAF
KRNH 021125Z 0212/0312 31004KT P6SM OVC025
     FM021700 29006KT P6SM OVC030
     FM030600 27003KT P6SM OVC025=

USA.gov is the U.S. government's official web portal to all federal, state and local government web resources and services.